sensor_id;sensor_type;location;lat;lon;timestamp;P1;durP1;ratioP1;P2;durP2;ratioP2
57297;SDS011;43147;50.972;18.210;2023-12-07T00:01:58;151.10;;;48.30;;
57297;SDS011;43147;50.972;18.210;2023-12-07T00:04:24;139.20;;;43.70;;
57297;SDS011;43147;50.972;18.210;2023-12-07T00:06:49;158.90;;;48.70;;
57297;SDS011;43147;50.972;18.210;2023-12-07T00:09:15;145.30;;;45.00;;
57297;SDS011;43147;50.972;18.210;2023-12-07T00:11:40;120.80;;;34.40;;
57297;SDS011;43147;50.972;18.210;2023-12-07T00:14:06;147.20;;;47.60;;
57297;SDS011;43147;50.972;18.210;2023-12-07T00:16:31;166.30;;;51.90;;
57297;SDS011;43147;50.972;18.210;2023-12-07T00:18:57;149.30;;;45.30;;
57297;SDS011;43147;50.972;18.210;2023-12-07T00:21:22;141.60;;;45.50;;
57297;SDS011;43147;50.972;18.210;2023-12-07T00:23:48;161.10;;;53.00;;
57297;SDS011;43147;50.972;18.210;2023-12-07T00:26:13;154.70;;;47.70;;
57297;SDS011;43147;50.972;18.210;2023-12-07T00:28:39;138.80;;;48.50;;
57297;SDS011;43147;50.972;18.210;2023-12-07T00:31:05;146.40;;;48.60;;
57297;SDS011;43147;50.972;18.210;2023-12-07T00:33:30;140.50;;;46.90;;
57297;SDS011;43147;50.972;18.210;2023-12-07T00:35:56;161.40;;;45.50;;
57297;SDS011;43147;50.972;18.210;2023-12-07T00:38:21;141.00;;;41.50;;
57297;SDS011;43147;50.972;18.210;2023-12-07T00:40:47;146.50;;;46.10;;
57297;SDS011;43147;50.972;18.210;2023-12-07T00:43:13;143.90;;;46.90;;
57297;SDS011;43147;50.972;18.210;2023-12-07T00:45:39;140.00;;;45.90;;
57297;SDS011;43147;50.972;18.210;2023-12-07T00:48:04;144.90;;;47.50;;
57297;SDS011;43147;50.972;18.210;2023-12-07T00:50:30;133.70;;;46.30;;
57297;SDS011;43147;50.972;18.210;2023-12-07T00:52:56;149.50;;;46.30;;
57297;SDS011;43147;50.972;18.210;2023-12-07T00:55:21;139.90;;;45.80;;
57297;SDS011;43147;50.972;18.210;2023-12-07T00:57:47;137.40;;;47.00;;
57297;SDS011;43147;50.972;18.210;2023-12-07T01:00:13;152.40;;;47.40;;
57297;SDS011;43147;50.972;18.210;2023-12-07T01:02:39;131.80;;;45.40;;
57297;SDS011;43147;50.972;18.210;2023-12-07T01:05:05;139.80;;;43.20;;
57297;SDS011;43147;50.972;18.210;2023-12-07T01:07:31;166.50;;;48.20;;
57297;SDS011;43147;50.972;18.210;2023-12-07T01:09:56;141.60;;;43.30;;
57297;SDS011;43147;50.972;18.210;2023-12-07T01:12:21;122.70;;;41.90;;
57297;SDS011;43147;50.972;18.210;2023-12-07T01:14:47;144.20;;;46.10;;
57297;SDS011;43147;50.972;18.210;2023-12-07T01:17:12;134.70;;;42.10;;
57297;SDS011;43147;50.972;18.210;2023-12-07T01:19:38;158.80;;;47.60;;
57297;SDS011;43147;50.972;18.210;2023-12-07T01:22:04;144.00;;;46.30;;
57297;SDS011;43147;50.972;18.210;2023-12-07T01:24:29;122.70;;;43.90;;
57297;SDS011;43147;50.972;18.210;2023-12-07T01:26:55;121.20;;;43.30;;
57297;SDS011;43147;50.972;18.210;2023-12-07T01:29:20;142.50;;;44.50;;
57297;SDS011;43147;50.972;18.210;2023-12-07T01:31:46;128.40;;;43.60;;
57297;SDS011;43147;50.972;18.210;2023-12-07T01:34:11;127.40;;;42.50;;
57297;SDS011;43147;50.972;18.210;2023-12-07T01:36:37;147.90;;;45.50;;
57297;SDS011;43147;50.972;18.210;2023-12-07T01:39:05;128.30;;;42.00;;
57297;SDS011;43147;50.972;18.210;2023-12-07T01:41:30;130.90;;;41.10;;
57297;SDS011;43147;50.972;18.210;2023-12-07T01:43:56;122.50;;;39.60;;
57297;SDS011;43147;50.972;18.210;2023-12-07T01:46:22;111.40;;;37.90;;
57297;SDS011;43147;50.972;18.210;2023-12-07T01:48:47;121.50;;;43.10;;
57297;SDS011;43147;50.972;18.210;2023-12-07T01:51:14;115.40;;;40.60;;
57297;SDS011;43147;50.972;18.210;2023-12-07T01:53:40;121.80;;;41.20;;
57297;SDS011;43147;50.972;18.210;2023-12-07T01:56:06;131.20;;;46.80;;
57297;SDS011;43147;50.972;18.210;2023-12-07T01:58:32;140.40;;;44.90;;
57297;SDS011;43147;50.972;18.210;2023-12-07T02:00:59;117.50;;;40.80;;
57297;SDS011;43147;50.972;18.210;2023-12-07T02:03:25;115.10;;;40.60;;
57297;SDS011;43147;50.972;18.210;2023-12-07T02:05:52;101.90;;;36.40;;
57297;SDS011;43147;50.972;18.210;2023-12-07T02:08:18;129.80;;;46.40;;
57297;SDS011;43147;50.972;18.210;2023-12-07T02:10:44;120.20;;;38.20;;
57297;SDS011;43147;50.972;18.210;2023-12-07T02:13:09;126.70;;;42.30;;
57297;SDS011;43147;50.972;18.210;2023-12-07T02:15:35;90.30;;;29.30;;
57297;SDS011;43147;50.972;18.210;2023-12-07T02:23:45;120.30;;;43.60;;
57297;SDS011;43147;50.972;18.210;2023-12-07T02:29:18;122.20;;;38.00;;
57297;SDS011;43147;50.972;18.210;2023-12-07T02:31:44;117.30;;;38.40;;
57297;SDS011;43147;50.972;18.210;2023-12-07T02:34:10;133.20;;;40.50;;
57297;SDS011;43147;50.972;18.210;2023-12-07T02:36:35;65.00;;;26.10;;
57297;SDS011;43147;50.972;18.210;2023-12-07T02:39:03;124.30;;;42.80;;
57297;SDS011;43147;50.972;18.210;2023-12-07T02:41:30;109.80;;;36.50;;
57297;SDS011;43147;50.972;18.210;2023-12-07T02:43:57;133.60;;;42.80;;
57297;SDS011;43147;50.972;18.210;2023-12-07T02:46:23;127.20;;;41.10;;
57297;SDS011;43147;50.972;18.210;2023-12-07T02:48:50;113.60;;;38.00;;
57297;SDS011;43147;50.972;18.210;2023-12-07T02:51:16;106.80;;;36.70;;
57297;SDS011;43147;50.972;18.210;2023-12-07T02:53:41;120.70;;;37.30;;
57297;SDS011;43147;50.972;18.210;2023-12-07T02:56:07;112.80;;;39.80;;
57297;SDS011;43147;50.972;18.210;2023-12-07T02:58:32;126.20;;;40.90;;
57297;SDS011;43147;50.972;18.210;2023-12-07T03:00:58;84.80;;;27.80;;
57297;SDS011;43147;50.972;18.210;2023-12-07T03:03:24;84.70;;;26.20;;
57297;SDS011;43147;50.972;18.210;2023-12-07T03:05:50;42.90;;;19.90;;
57297;SDS011;43147;50.972;18.210;2023-12-07T03:08:16;127.50;;;39.90;;
57297;SDS011;43147;50.972;18.210;2023-12-07T03:10:41;120.60;;;37.40;;
57297;SDS011;43147;50.972;18.210;2023-12-07T03:13:07;123.40;;;37.30;;
57297;SDS011;43147;50.972;18.210;2023-12-07T03:15:32;129.90;;;39.60;;
57297;SDS011;43147;50.972;18.210;2023-12-07T03:17:58;132.30;;;45.40;;
57297;SDS011;43147;50.972;18.210;2023-12-07T03:20:23;125.80;;;40.90;;
57297;SDS011;43147;50.972;18.210;2023-12-07T03:22:51;128.50;;;40.70;;
57297;SDS011;43147;50.972;18.210;2023-12-07T03:25:17;131.50;;;41.20;;
57297;SDS011;43147;50.972;18.210;2023-12-07T03:27:42;144.60;;;48.70;;
57297;SDS011;43147;50.972;18.210;2023-12-07T03:30:08;123.70;;;39.80;;
57297;SDS011;43147;50.972;18.210;2023-12-07T03:32:34;127.50;;;40.50;;
57297;SDS011;43147;50.972;18.210;2023-12-07T03:35:00;154.40;;;50.30;;
57297;SDS011;43147;50.972;18.210;2023-12-07T03:37:25;136.60;;;41.80;;
57297;SDS011;43147;50.972;18.210;2023-12-07T03:39:53;112.60;;;40.00;;
57297;SDS011;43147;50.972;18.210;2023-12-07T03:42:18;126.00;;;40.00;;
57297;SDS011;43147;50.972;18.210;2023-12-07T03:44:44;140.00;;;43.80;;
57297;SDS011;43147;50.972;18.210;2023-12-07T03:47:10;108.00;;;37.30;;
57297;SDS011;43147;50.972;18.210;2023-12-07T03:49:35;112.40;;;40.40;;
57297;SDS011;43147;50.972;18.210;2023-12-07T03:52:01;148.20;;;47.70;;
57297;SDS011;43147;50.972;18.210;2023-12-07T03:54:26;135.70;;;42.10;;
57297;SDS011;43147;50.972;18.210;2023-12-07T03:56:52;126.20;;;39.80;;
57297;SDS011;43147;50.972;18.210;2023-12-07T03:59:17;125.30;;;44.10;;
57297;SDS011;43147;50.972;18.210;2023-12-07T04:01:43;62.40;;;24.40;;
57297;SDS011;43147;50.972;18.210;2023-12-07T04:04:09;113.70;;;37.80;;
57297;SDS011;43147;50.972;18.210;2023-12-07T04:06:36;119.10;;;39.20;;
57297;SDS011;43147;50.972;18.210;2023-12-07T04:09:02;158.00;;;52.20;;
57297;SDS011;43147;50.972;18.210;2023-12-07T04:11:29;140.10;;;46.40;;
57297;SDS011;43147;50.972;18.210;2023-12-07T04:13:54;132.10;;;44.10;;
57297;SDS011;43147;50.972;18.210;2023-12-07T04:16:20;154.40;;;42.30;;
57297;SDS011;43147;50.972;18.210;2023-12-07T04:18:46;177.50;;;49.70;;
57297;SDS011;43147;50.972;18.210;2023-12-07T04:21:11;184.30;;;51.30;;
57297;SDS011;43147;50.972;18.210;2023-12-07T04:23:37;152.70;;;44.80;;
57297;SDS011;43147;50.972;18.210;2023-12-07T04:26:05;131.40;;;40.70;;
57297;SDS011;43147;50.972;18.210;2023-12-07T04:28:31;129.00;;;40.40;;
57297;SDS011;43147;50.972;18.210;2023-12-07T04:30:57;147.40;;;45.30;;
57297;SDS011;43147;50.972;18.210;2023-12-07T04:33:22;126.40;;;39.20;;
57297;SDS011;43147;50.972;18.210;2023-12-07T04:35:48;125.80;;;38.30;;
57297;SDS011;43147;50.972;18.210;2023-12-07T04:38:14;124.70;;;36.70;;
57297;SDS011;43147;50.972;18.210;2023-12-07T04:40:39;56.20;;;24.20;;
57297;SDS011;43147;50.972;18.210;2023-12-07T04:43:07;53.60;;;21.40;;
57297;SDS011;43147;50.972;18.210;2023-12-07T04:45:33;123.50;;;38.30;;
57297;SDS011;43147;50.972;18.210;2023-12-07T04:47:58;137.60;;;42.50;;
57297;SDS011;43147;50.972;18.210;2023-12-07T04:50:25;130.20;;;40.60;;
57297;SDS011;43147;50.972;18.210;2023-12-07T04:52:51;104.60;;;34.60;;
57297;SDS011;43147;50.972;18.210;2023-12-07T04:55:16;57.70;;;20.20;;
57297;SDS011;43147;50.972;18.210;2023-12-07T04:57:41;113.90;;;36.50;;
57297;SDS011;43147;50.972;18.210;2023-12-07T05:00:08;112.80;;;34.00;;
57297;SDS011;43147;50.972;18.210;2023-12-07T05:02:38;108.00;;;34.00;;
57297;SDS011;43147;50.972;18.210;2023-12-07T05:05:04;107.70;;;36.40;;
57297;SDS011;43147;50.972;18.210;2023-12-07T05:07:30;45.10;;;18.60;;
57297;SDS011;43147;50.972;18.210;2023-12-07T05:09:55;142.60;;;39.70;;
57297;SDS011;43147;50.972;18.210;2023-12-07T05:12:21;126.30;;;39.00;;
57297;SDS011;43147;50.972;18.210;2023-12-07T05:14:47;113.60;;;33.80;;
57297;SDS011;43147;50.972;18.210;2023-12-07T05:17:12;62.80;;;17.80;;
57297;SDS011;43147;50.972;18.210;2023-12-07T05:19:40;62.30;;;20.00;;
57297;SDS011;43147;50.972;18.210;2023-12-07T05:22:06;111.30;;;37.70;;
57297;SDS011;43147;50.972;18.210;2023-12-07T05:24:31;116.70;;;37.70;;
57297;SDS011;43147;50.972;18.210;2023-12-07T05:26:59;126.90;;;39.20;;
57297;SDS011;43147;50.972;18.210;2023-12-07T05:29:25;95.30;;;31.80;;
57297;SDS011;43147;50.972;18.210;2023-12-07T05:31:50;99.90;;;34.20;;
57297;SDS011;43147;50.972;18.210;2023-12-07T05:34:16;89.30;;;29.10;;
57297;SDS011;43147;50.972;18.210;2023-12-07T05:36:46;103.60;;;31.50;;
57297;SDS011;43147;50.972;18.210;2023-12-07T05:39:12;119.10;;;33.10;;
57297;SDS011;43147;50.972;18.210;2023-12-07T05:41:38;93.60;;;31.80;;
57297;SDS011;43147;50.972;18.210;2023-12-07T05:44:04;81.10;;;26.50;;
57297;SDS011;43147;50.972;18.210;2023-12-07T05:46:29;41.70;;;18.90;;
57297;SDS011;43147;50.972;18.210;2023-12-07T05:48:55;68.40;;;22.60;;
57297;SDS011;43147;50.972;18.210;2023-12-07T05:51:21;91.10;;;30.20;;
57297;SDS011;43147;50.972;18.210;2023-12-07T05:53:49;85.80;;;27.70;;
57297;SDS011;43147;50.972;18.210;2023-12-07T05:56:18;88.10;;;27.00;;
57297;SDS011;43147;50.972;18.210;2023-12-07T05:58:45;72.90;;;26.50;;
57297;SDS011;43147;50.972;18.210;2023-12-07T06:01:11;75.70;;;28.60;;
57297;SDS011;43147;50.972;18.210;2023-12-07T06:03:37;68.80;;;25.20;;
57297;SDS011;43147;50.972;18.210;2023-12-07T06:06:03;57.30;;;20.30;;
57297;SDS011;43147;50.972;18.210;2023-12-07T06:08:29;41.30;;;15.10;;
57297;SDS011;43147;50.972;18.210;2023-12-07T06:10:54;38.60;;;16.30;;
57297;SDS011;43147;50.972;18.210;2023-12-07T06:13:20;55.40;;;14.90;;
57297;SDS011;43147;50.972;18.210;2023-12-07T06:15:45;44.30;;;16.50;;
57297;SDS011;43147;50.972;18.210;2023-12-07T06:18:11;92.00;;;28.40;;
57297;SDS011;43147;50.972;18.210;2023-12-07T06:20:37;80.80;;;28.80;;
57297;SDS011;43147;50.972;18.210;2023-12-07T06:23:02;67.80;;;24.90;;
57297;SDS011;43147;50.972;18.210;2023-12-07T06:25:29;101.00;;;33.70;;
57297;SDS011;43147;50.972;18.210;2023-12-07T06:27:54;97.80;;;33.10;;
57297;SDS011;43147;50.972;18.210;2023-12-07T06:30:21;110.70;;;32.70;;
57297;SDS011;43147;50.972;18.210;2023-12-07T06:32:46;94.60;;;29.70;;
57297;SDS011;43147;50.972;18.210;2023-12-07T06:35:12;94.80;;;32.20;;
57297;SDS011;43147;50.972;18.210;2023-12-07T06:37:37;90.80;;;27.60;;
57297;SDS011;43147;50.972;18.210;2023-12-07T06:40:05;87.40;;;29.90;;
57297;SDS011;43147;50.972;18.210;2023-12-07T06:42:34;89.90;;;30.40;;
57297;SDS011;43147;50.972;18.210;2023-12-07T06:45:01;112.20;;;30.50;;
57297;SDS011;43147;50.972;18.210;2023-12-07T06:47:27;98.80;;;30.00;;
57297;SDS011;43147;50.972;18.210;2023-12-07T06:49:53;60.00;;;21.90;;
57297;SDS011;43147;50.972;18.210;2023-12-07T06:52:19;118.60;;;35.20;;
57297;SDS011;43147;50.972;18.210;2023-12-07T06:54:44;116.10;;;34.40;;
57297;SDS011;43147;50.972;18.210;2023-12-07T06:57:10;93.70;;;29.80;;
57297;SDS011;43147;50.972;18.210;2023-12-07T06:59:35;89.80;;;30.40;;
57297;SDS011;43147;50.972;18.210;2023-12-07T07:02:01;131.30;;;35.20;;
57297;SDS011;43147;50.972;18.210;2023-12-07T07:04:27;111.60;;;33.70;;
57297;SDS011;43147;50.972;18.210;2023-12-07T07:06:52;130.90;;;39.90;;
57297;SDS011;43147;50.972;18.210;2023-12-07T07:09:18;111.00;;;30.90;;
57297;SDS011;43147;50.972;18.210;2023-12-07T07:11:49;126.00;;;38.60;;
57297;SDS011;43147;50.972;18.210;2023-12-07T07:14:15;142.80;;;44.00;;
57297;SDS011;43147;50.972;18.210;2023-12-07T07:16:41;132.80;;;39.30;;
57297;SDS011;43147;50.972;18.210;2023-12-07T07:19:06;84.80;;;32.20;;
57297;SDS011;43147;50.972;18.210;2023-12-07T07:21:32;137.10;;;44.30;;
57297;SDS011;43147;50.972;18.210;2023-12-07T07:23:57;106.20;;;36.80;;
57297;SDS011;43147;50.972;18.210;2023-12-07T07:26:23;128.70;;;43.40;;
57297;SDS011;43147;50.972;18.210;2023-12-07T07:28:53;143.40;;;39.40;;
57297;SDS011;43147;50.972;18.210;2023-12-07T07:31:18;141.70;;;42.50;;
57297;SDS011;43147;50.972;18.210;2023-12-07T07:33:44;77.40;;;26.60;;
57297;SDS011;43147;50.972;18.210;2023-12-07T07:36:12;151.60;;;44.90;;
57297;SDS011;43147;50.972;18.210;2023-12-07T07:38:40;110.10;;;36.10;;
57297;SDS011;43147;50.972;18.210;2023-12-07T07:41:06;115.90;;;38.80;;
57297;SDS011;43147;50.972;18.210;2023-12-07T07:43:31;142.60;;;45.10;;
57297;SDS011;43147;50.972;18.210;2023-12-07T07:45:59;135.00;;;42.50;;
57297;SDS011;43147;50.972;18.210;2023-12-07T07:48:26;74.40;;;28.40;;
57297;SDS011;43147;50.972;18.210;2023-12-07T07:53:27;146.60;;;47.20;;
57297;SDS011;43147;50.972;18.210;2023-12-07T07:55:53;145.10;;;40.10;;
57297;SDS011;43147;50.972;18.210;2023-12-07T07:58:18;134.50;;;39.90;;
57297;SDS011;43147;50.972;18.210;2023-12-07T08:00:44;100.80;;;33.40;;
57297;SDS011;43147;50.972;18.210;2023-12-07T08:03:11;100.10;;;34.70;;
57297;SDS011;43147;50.972;18.210;2023-12-07T08:05:37;166.30;;;51.20;;
57297;SDS011;43147;50.972;18.210;2023-12-07T08:08:03;133.50;;;42.70;;
57297;SDS011;43147;50.972;18.210;2023-12-07T08:10:29;127.70;;;39.80;;
57297;SDS011;43147;50.972;18.210;2023-12-07T08:12:54;156.90;;;44.90;;
57297;SDS011;43147;50.972;18.210;2023-12-07T08:15:22;127.50;;;38.60;;
57297;SDS011;43147;50.972;18.210;2023-12-07T08:17:47;143.90;;;41.20;;
57297;SDS011;43147;50.972;18.210;2023-12-07T08:20:13;128.10;;;40.50;;
57297;SDS011;43147;50.972;18.210;2023-12-07T08:22:40;144.90;;;46.20;;
57297;SDS011;43147;50.972;18.210;2023-12-07T08:25:09;136.70;;;45.20;;
57297;SDS011;43147;50.972;18.210;2023-12-07T08:27:39;169.40;;;51.50;;
57297;SDS011;43147;50.972;18.210;2023-12-07T08:30:04;155.20;;;50.00;;
57297;SDS011;43147;50.972;18.210;2023-12-07T08:32:31;136.50;;;40.80;;
57297;SDS011;43147;50.972;18.210;2023-12-07T08:34:56;139.70;;;42.30;;
57297;SDS011;43147;50.972;18.210;2023-12-07T08:37:22;160.00;;;50.00;;
57297;SDS011;43147;50.972;18.210;2023-12-07T08:39:47;152.00;;;48.20;;
57297;SDS011;43147;50.972;18.210;2023-12-07T08:42:13;142.90;;;46.00;;
57297;SDS011;43147;50.972;18.210;2023-12-07T08:44:39;161.20;;;49.50;;
57297;SDS011;43147;50.972;18.210;2023-12-07T08:47:05;142.10;;;45.40;;
57297;SDS011;43147;50.972;18.210;2023-12-07T08:49:30;153.10;;;46.60;;
57297;SDS011;43147;50.972;18.210;2023-12-07T08:51:56;142.20;;;45.20;;
57297;SDS011;43147;50.972;18.210;2023-12-07T08:54:22;147.80;;;49.20;;
57297;SDS011;43147;50.972;18.210;2023-12-07T08:56:48;143.10;;;51.00;;
57297;SDS011;43147;50.972;18.210;2023-12-07T08:59:13;142.30;;;45.50;;
57297;SDS011;43147;50.972;18.210;2023-12-07T09:01:39;144.20;;;46.70;;
57297;SDS011;43147;50.972;18.210;2023-12-07T09:04:04;135.50;;;45.30;;
57297;SDS011;43147;50.972;18.210;2023-12-07T09:06:30;165.80;;;52.70;;
57297;SDS011;43147;50.972;18.210;2023-12-07T09:08:56;158.30;;;50.80;;
57297;SDS011;43147;50.972;18.210;2023-12-07T09:11:22;174.30;;;53.40;;
57297;SDS011;43147;50.972;18.210;2023-12-07T09:13:47;195.60;;;59.90;;
57297;SDS011;43147;50.972;18.210;2023-12-07T09:16:13;173.60;;;57.10;;
57297;SDS011;43147;50.972;18.210;2023-12-07T09:18:41;141.30;;;46.30;;
57297;SDS011;43147;50.972;18.210;2023-12-07T09:21:07;150.90;;;49.70;;
57297;SDS011;43147;50.972;18.210;2023-12-07T09:23:33;134.90;;;45.40;;
57297;SDS011;43147;50.972;18.210;2023-12-07T09:26:00;157.00;;;47.10;;
57297;SDS011;43147;50.972;18.210;2023-12-07T09:28:26;141.50;;;44.30;;
57297;SDS011;43147;50.972;18.210;2023-12-07T09:30:52;131.20;;;43.30;;
57297;SDS011;43147;50.972;18.210;2023-12-07T09:33:17;134.20;;;47.40;;
57297;SDS011;43147;50.972;18.210;2023-12-07T09:35:43;151.30;;;46.10;;
57297;SDS011;43147;50.972;18.210;2023-12-07T09:38:08;144.10;;;44.90;;
57297;SDS011;43147;50.972;18.210;2023-12-07T09:40:35;142.40;;;44.00;;
57297;SDS011;43147;50.972;18.210;2023-12-07T09:43:01;142.20;;;44.60;;
57297;SDS011;43147;50.972;18.210;2023-12-07T09:45:26;149.10;;;46.00;;
57297;SDS011;43147;50.972;18.210;2023-12-07T09:47:52;150.00;;;44.80;;
57297;SDS011;43147;50.972;18.210;2023-12-07T09:50:19;145.40;;;44.60;;
57297;SDS011;43147;50.972;18.210;2023-12-07T09:52:49;151.50;;;44.50;;
57297;SDS011;43147;50.972;18.210;2023-12-07T09:55:19;139.70;;;48.00;;
57297;SDS011;43147;50.972;18.210;2023-12-07T09:57:48;145.90;;;47.00;;
57297;SDS011;43147;50.972;18.210;2023-12-07T10:00:15;143.90;;;47.70;;
57297;SDS011;43147;50.972;18.210;2023-12-07T10:02:41;151.50;;;46.60;;
57297;SDS011;43147;50.972;18.210;2023-12-07T10:05:10;156.60;;;49.70;;
57297;SDS011;43147;50.972;18.210;2023-12-07T10:07:45;180.20;;;55.80;;
57297;SDS011;43147;50.972;18.210;2023-12-07T10:10:13;168.70;;;49.20;;
57297;SDS011;43147;50.972;18.210;2023-12-07T10:12:46;163.60;;;49.50;;
57297;SDS011;43147;50.972;18.210;2023-12-07T10:15:23;165.20;;;53.20;;
57297;SDS011;43147;50.972;18.210;2023-12-07T10:17:50;155.30;;;53.20;;
57297;SDS011;43147;50.972;18.210;2023-12-07T10:20:26;144.70;;;48.70;;
57297;SDS011;43147;50.972;18.210;2023-12-07T10:23:06;144.00;;;44.60;;
57297;SDS011;43147;50.972;18.210;2023-12-07T10:25:35;147.00;;;45.70;;
57297;SDS011;43147;50.972;18.210;2023-12-07T10:28:01;155.70;;;50.30;;
57297;SDS011;43147;50.972;18.210;2023-12-07T10:30:32;145.00;;;49.00;;
57297;SDS011;43147;50.972;18.210;2023-12-07T10:32:58;168.50;;;51.80;;
57297;SDS011;43147;50.972;18.210;2023-12-07T10:35:23;147.80;;;50.90;;
57297;SDS011;43147;50.972;18.210;2023-12-07T10:37:50;140.60;;;48.00;;
57297;SDS011;43147;50.972;18.210;2023-12-07T10:40:15;151.10;;;48.20;;
57297;SDS011;43147;50.972;18.210;2023-12-07T10:42:41;139.50;;;45.10;;
57297;SDS011;43147;50.972;18.210;2023-12-07T10:45:08;130.60;;;42.70;;
57297;SDS011;43147;50.972;18.210;2023-12-07T10:47:36;123.20;;;42.50;;
57297;SDS011;43147;50.972;18.210;2023-12-07T10:50:03;129.20;;;37.90;;
57297;SDS011;43147;50.972;18.210;2023-12-07T10:52:45;154.00;;;48.70;;
57297;SDS011;43147;50.972;18.210;2023-12-07T10:55:20;152.90;;;47.20;;
57297;SDS011;43147;50.972;18.210;2023-12-07T10:57:52;104.40;;;37.30;;
57297;SDS011;43147;50.972;18.210;2023-12-07T11:00:19;127.30;;;42.20;;
57297;SDS011;43147;50.972;18.210;2023-12-07T11:02:45;149.40;;;47.20;;
57297;SDS011;43147;50.972;18.210;2023-12-07T11:05:11;140.00;;;45.00;;
57297;SDS011;43147;50.972;18.210;2023-12-07T11:10:18;144.20;;;47.00;;
57297;SDS011;43147;50.972;18.210;2023-12-07T11:15:42;132.30;;;43.10;;
57297;SDS011;43147;50.972;18.210;2023-12-07T11:18:08;149.50;;;44.10;;
57297;SDS011;43147;50.972;18.210;2023-12-07T11:20:41;138.00;;;46.30;;
57297;SDS011;43147;50.972;18.210;2023-12-07T11:23:09;141.60;;;43.50;;
57297;SDS011;43147;50.972;18.210;2023-12-07T11:25:35;138.70;;;46.70;;
57297;SDS011;43147;50.972;18.210;2023-12-07T11:28:05;138.90;;;47.60;;
57297;SDS011;43147;50.972;18.210;2023-12-07T11:30:34;163.90;;;46.50;;
57297;SDS011;43147;50.972;18.210;2023-12-07T11:33:05;139.10;;;46.80;;
57297;SDS011;43147;50.972;18.210;2023-12-07T11:35:31;145.40;;;47.20;;
57297;SDS011;43147;50.972;18.210;2023-12-07T11:38:01;133.60;;;45.20;;
57297;SDS011;43147;50.972;18.210;2023-12-07T11:40:37;135.70;;;44.60;;
57297;SDS011;43147;50.972;18.210;2023-12-07T11:43:03;140.00;;;48.20;;
57297;SDS011;43147;50.972;18.210;2023-12-07T11:45:46;118.70;;;41.90;;
57297;SDS011;43147;50.972;18.210;2023-12-07T11:48:16;138.60;;;42.60;;
57297;SDS011;43147;50.972;18.210;2023-12-07T11:50:55;114.40;;;37.90;;
57297;SDS011;43147;50.972;18.210;2023-12-07T11:53:24;127.90;;;43.20;;
57297;SDS011;43147;50.972;18.210;2023-12-07T11:55:55;135.70;;;41.90;;
57297;SDS011;43147;50.972;18.210;2023-12-07T11:58:24;125.10;;;42.50;;
57297;SDS011;43147;50.972;18.210;2023-12-07T12:00:51;138.10;;;45.40;;
57297;SDS011;43147;50.972;18.210;2023-12-07T12:03:19;136.10;;;43.70;;
57297;SDS011;43147;50.972;18.210;2023-12-07T12:05:45;128.10;;;42.90;;
57297;SDS011;43147;50.972;18.210;2023-12-07T12:08:11;116.40;;;40.00;;
57297;SDS011;43147;50.972;18.210;2023-12-07T12:10:40;157.10;;;46.10;;
57297;SDS011;43147;50.972;18.210;2023-12-07T12:13:07;132.10;;;42.70;;
57297;SDS011;43147;50.972;18.210;2023-12-07T12:15:34;133.80;;;43.30;;
57297;SDS011;43147;50.972;18.210;2023-12-07T12:18:00;129.10;;;45.20;;
57297;SDS011;43147;50.972;18.210;2023-12-07T12:20:26;113.10;;;41.50;;
57297;SDS011;43147;50.972;18.210;2023-12-07T12:22:53;118.80;;;42.10;;
57297;SDS011;43147;50.972;18.210;2023-12-07T12:25:23;126.70;;;39.60;;
57297;SDS011;43147;50.972;18.210;2023-12-07T12:27:52;112.00;;;36.20;;
57297;SDS011;43147;50.972;18.210;2023-12-07T12:30:19;146.10;;;43.90;;
57297;SDS011;43147;50.972;18.210;2023-12-07T12:32:45;132.40;;;43.70;;
57297;SDS011;43147;50.972;18.210;2023-12-07T12:35:12;119.60;;;41.20;;
57297;SDS011;43147;50.972;18.210;2023-12-07T12:37:41;137.20;;;46.20;;
57297;SDS011;43147;50.972;18.210;2023-12-07T12:40:08;144.70;;;46.90;;
57297;SDS011;43147;50.972;18.210;2023-12-07T12:42:35;134.90;;;47.30;;
57297;SDS011;43147;50.972;18.210;2023-12-07T12:45:13;133.30;;;44.70;;
57297;SDS011;43147;50.972;18.210;2023-12-07T12:47:42;144.60;;;46.90;;
57297;SDS011;43147;50.972;18.210;2023-12-07T12:50:09;144.50;;;46.50;;
57297;SDS011;43147;50.972;18.210;2023-12-07T12:52:35;154.80;;;48.80;;
57297;SDS011;43147;50.972;18.210;2023-12-07T12:55:02;141.70;;;47.60;;
57297;SDS011;43147;50.972;18.210;2023-12-07T12:57:32;144.20;;;46.70;;
57297;SDS011;43147;50.972;18.210;2023-12-07T12:59:58;141.20;;;46.20;;
57297;SDS011;43147;50.972;18.210;2023-12-07T13:02:26;136.20;;;44.70;;
57297;SDS011;43147;50.972;18.210;2023-12-07T13:04:51;154.50;;;44.90;;
57297;SDS011;43147;50.972;18.210;2023-12-07T13:07:17;127.10;;;44.50;;
57297;SDS011;43147;50.972;18.210;2023-12-07T13:09:42;142.10;;;46.70;;
57297;SDS011;43147;50.972;18.210;2023-12-07T13:12:09;135.10;;;45.00;;
57297;SDS011;43147;50.972;18.210;2023-12-07T13:17:05;151.60;;;46.60;;
57297;SDS011;43147;50.972;18.210;2023-12-07T13:19:33;144.50;;;45.90;;
57297;SDS011;43147;50.972;18.210;2023-12-07T13:21:59;137.60;;;47.30;;
57297;SDS011;43147;50.972;18.210;2023-12-07T13:24:25;137.20;;;43.40;;
57297;SDS011;43147;50.972;18.210;2023-12-07T13:26:51;139.20;;;48.80;;
57297;SDS011;43147;50.972;18.210;2023-12-07T13:29:17;151.90;;;47.90;;
57297;SDS011;43147;50.972;18.210;2023-12-07T13:31:42;142.70;;;44.80;;
57297;SDS011;43147;50.972;18.210;2023-12-07T13:34:08;135.80;;;43.80;;
57297;SDS011;43147;50.972;18.210;2023-12-07T13:36:34;136.30;;;43.10;;
57297;SDS011;43147;50.972;18.210;2023-12-07T13:39:01;131.40;;;42.90;;
57297;SDS011;43147;50.972;18.210;2023-12-07T13:41:27;130.00;;;42.30;;
57297;SDS011;43147;50.972;18.210;2023-12-07T13:43:53;132.00;;;46.20;;
57297;SDS011;43147;50.972;18.210;2023-12-07T13:46:21;129.60;;;45.00;;
57297;SDS011;43147;50.972;18.210;2023-12-07T13:48:48;144.40;;;47.80;;
57297;SDS011;43147;50.972;18.210;2023-12-07T13:51:15;149.80;;;43.00;;
57297;SDS011;43147;50.972;18.210;2023-12-07T13:53:40;147.20;;;47.00;;
57297;SDS011;43147;50.972;18.210;2023-12-07T13:56:06;144.10;;;51.20;;
57297;SDS011;43147;50.972;18.210;2023-12-07T13:58:35;152.00;;;47.30;;
57297;SDS011;43147;50.972;18.210;2023-12-07T14:01:01;155.30;;;48.20;;
57297;SDS011;43147;50.972;18.210;2023-12-07T14:03:29;153.90;;;49.80;;
57297;SDS011;43147;50.972;18.210;2023-12-07T14:05:55;171.20;;;51.00;;
57297;SDS011;43147;50.972;18.210;2023-12-07T14:08:20;172.20;;;54.10;;
57297;SDS011;43147;50.972;18.210;2023-12-07T14:10:45;151.60;;;50.30;;
57297;SDS011;43147;50.972;18.210;2023-12-07T14:13:11;164.00;;;51.80;;
57297;SDS011;43147;50.972;18.210;2023-12-07T14:15:37;155.20;;;48.60;;